sensor_id;sensor_type;location;lat;lon;timestamp;P1;durP1;ratioP1;P2;durP2;ratioP2
58083;SDS011;43882;51.550;11.858;2023-04-06T00:00:00;21.15;;;9.60;;
58083;SDS011;43882;51.550;11.858;2023-04-06T00:02:26;22.02;;;9.60;;
58083;SDS011;43882;51.550;11.858;2023-04-06T00:04:52;20.65;;;9.48;;
58083;SDS011;43882;51.550;11.858;2023-04-06T00:07:18;21.08;;;9.05;;
58083;SDS011;43882;51.550;11.858;2023-04-06T00:09:44;21.70;;;10.18;;
58083;SDS011;43882;51.550;11.858;2023-04-06T00:12:10;20.05;;;9.18;;
58083;SDS011;43882;51.550;11.858;2023-04-06T00:14:36;21.02;;;9.75;;
58083;SDS011;43882;51.550;11.858;2023-04-06T00:17:02;22.25;;;9.88;;
58083;SDS011;43882;51.550;11.858;2023-04-06T00:19:28;22.85;;;9.80;;
58083;SDS011;43882;51.550;11.858;2023-04-06T00:21:54;23.85;;;11.25;;
58083;SDS011;43882;51.550;11.858;2023-04-06T00:24:20;22.48;;;10.38;;
58083;SDS011;43882;51.550;11.858;2023-04-06T00:26:46;22.08;;;10.80;;
58083;SDS011;43882;51.550;11.858;2023-04-06T00:29:12;33.28;;;12.18;;
58083;SDS011;43882;51.550;11.858;2023-04-06T00:31:38;39.40;;;15.52;;
58083;SDS011;43882;51.550;11.858;2023-04-06T00:34:05;40.42;;;16.30;;
58083;SDS011;43882;51.550;11.858;2023-04-06T00:36:31;28.58;;;12.45;;
58083;SDS011;43882;51.550;11.858;2023-04-06T00:38:57;28.02;;;12.48;;
58083;SDS011;43882;51.550;11.858;2023-04-06T00:41:23;23.50;;;10.75;;
58083;SDS011;43882;51.550;11.858;2023-04-06T00:43:49;25.83;;;11.45;;
58083;SDS011;43882;51.550;11.858;2023-04-06T00:46:15;24.55;;;10.95;;
58083;SDS011;43882;51.550;11.858;2023-04-06T00:48:41;25.38;;;11.50;;
58083;SDS011;43882;51.550;11.858;2023-04-06T00:51:07;26.50;;;11.55;;
58083;SDS011;43882;51.550;11.858;2023-04-06T00:53:33;29.58;;;13.27;;
58083;SDS011;43882;51.550;11.858;2023-04-06T00:55:59;34.92;;;14.85;;
58083;SDS011;43882;51.550;11.858;2023-04-06T00:58:25;30.95;;;13.20;;
58083;SDS011;43882;51.550;11.858;2023-04-06T01:00:51;37.58;;;15.18;;
58083;SDS011;43882;51.550;11.858;2023-04-06T01:03:17;72.03;;;23.48;;
58083;SDS011;43882;51.550;11.858;2023-04-06T01:05:43;84.40;;;28.13;;
58083;SDS011;43882;51.550;11.858;2023-04-06T01:08:09;151.82;;;46.67;;
58083;SDS011;43882;51.550;11.858;2023-04-06T01:10:35;80.03;;;28.70;;
58083;SDS011;43882;51.550;11.858;2023-04-06T01:13:01;70.25;;;23.88;;
58083;SDS011;43882;51.550;11.858;2023-04-06T01:15:27;48.65;;;17.88;;
58083;SDS011;43882;51.550;11.858;2023-04-06T01:17:54;26.35;;;11.48;;
58083;SDS011;43882;51.550;11.858;2023-04-06T01:20:20;23.40;;;10.82;;
58083;SDS011;43882;51.550;11.858;2023-04-06T01:22:46;26.17;;;11.50;;
58083;SDS011;43882;51.550;11.858;2023-04-06T01:25:12;27.63;;;12.48;;
58083;SDS011;43882;51.550;11.858;2023-04-06T01:27:38;24.17;;;11.98;;
58083;SDS011;43882;51.550;11.858;2023-04-06T01:30:04;25.02;;;11.30;;
58083;SDS011;43882;51.550;11.858;2023-04-06T01:32:30;25.50;;;12.15;;
58083;SDS011;43882;51.550;11.858;2023-04-06T01:34:56;25.55;;;11.23;;
58083;SDS011;43882;51.550;11.858;2023-04-06T01:37:22;40.33;;;15.57;;
58083;SDS011;43882;51.550;11.858;2023-04-06T01:39:48;38.72;;;15.65;;
58083;SDS011;43882;51.550;11.858;2023-04-06T01:42:14;32.58;;;15.07;;
58083;SDS011;43882;51.550;11.858;2023-04-06T01:44:40;29.85;;;14.30;;
58083;SDS011;43882;51.550;11.858;2023-04-06T01:47:06;33.20;;;13.52;;
58083;SDS011;43882;51.550;11.858;2023-04-06T01:49:32;33.92;;;13.32;;
58083;SDS011;43882;51.550;11.858;2023-04-06T01:51:58;28.65;;;12.43;;
58083;SDS011;43882;51.550;11.858;2023-04-06T01:54:24;26.33;;;13.23;;
58083;SDS011;43882;51.550;11.858;2023-04-06T01:56:50;26.52;;;12.52;;
58083;SDS011;43882;51.550;11.858;2023-04-06T01:59:17;25.42;;;11.93;;
58083;SDS011;43882;51.550;11.858;2023-04-06T02:01:43;25.48;;;13.70;;
58083;SDS011;43882;51.550;11.858;2023-04-06T02:04:10;24.92;;;12.23;;
58083;SDS011;43882;51.550;11.858;2023-04-06T02:06:36;26.27;;;12.00;;
58083;SDS011;43882;51.550;11.858;2023-04-06T02:09:02;35.67;;;14.30;;
58083;SDS011;43882;51.550;11.858;2023-04-06T02:11:28;44.58;;;16.15;;
58083;SDS011;43882;51.550;11.858;2023-04-06T02:13:55;40.55;;;15.32;;
58083;SDS011;43882;51.550;11.858;2023-04-06T02:16:21;33.30;;;14.30;;
58083;SDS011;43882;51.550;11.858;2023-04-06T02:18:47;32.85;;;14.18;;
58083;SDS011;43882;51.550;11.858;2023-04-06T02:21:13;38.58;;;17.25;;
58083;SDS011;43882;51.550;11.858;2023-04-06T02:23:42;32.88;;;14.88;;
58083;SDS011;43882;51.550;11.858;2023-04-06T02:26:08;28.35;;;12.93;;
58083;SDS011;43882;51.550;11.858;2023-04-06T02:28:34;28.17;;;12.00;;
58083;SDS011;43882;51.550;11.858;2023-04-06T02:31:00;31.95;;;13.38;;
58083;SDS011;43882;51.550;11.858;2023-04-06T02:33:26;33.75;;;13.00;;
58083;SDS011;43882;51.550;11.858;2023-04-06T02:35:52;33.17;;;12.20;;
58083;SDS011;43882;51.550;11.858;2023-04-06T02:38:18;28.15;;;11.32;;
58083;SDS011;43882;51.550;11.858;2023-04-06T02:40:44;25.00;;;12.00;;
58083;SDS011;43882;51.550;11.858;2023-04-06T02:43:10;24.80;;;11.57;;
58083;SDS011;43882;51.550;11.858;2023-04-06T02:45:36;23.73;;;10.68;;
58083;SDS011;43882;51.550;11.858;2023-04-06T02:48:02;30.52;;;14.10;;
58083;SDS011;43882;51.550;11.858;2023-04-06T02:50:28;30.67;;;13.60;;
58083;SDS011;43882;51.550;11.858;2023-04-06T02:52:54;29.23;;;13.32;;
58083;SDS011;43882;51.550;11.858;2023-04-06T02:55:20;25.27;;;12.35;;
58083;SDS011;43882;51.550;11.858;2023-04-06T02:57:46;25.98;;;11.45;;
58083;SDS011;43882;51.550;11.858;2023-04-06T03:00:12;30.58;;;14.07;;
58083;SDS011;43882;51.550;11.858;2023-04-06T03:02:38;30.95;;;14.40;;
58083;SDS011;43882;51.550;11.858;2023-04-06T03:05:04;27.15;;;13.10;;
58083;SDS011;43882;51.550;11.858;2023-04-06T03:07:30;27.73;;;12.55;;
58083;SDS011;43882;51.550;11.858;2023-04-06T03:09:56;25.27;;;10.95;;
58083;SDS011;43882;51.550;11.858;2023-04-06T03:12:22;26.23;;;11.77;;
58083;SDS011;43882;51.550;11.858;2023-04-06T03:14:48;30.73;;;13.30;;
58083;SDS011;43882;51.550;11.858;2023-04-06T03:17:14;30.10;;;13.50;;
58083;SDS011;43882;51.550;11.858;2023-04-06T03:19:40;27.00;;;12.30;;
58083;SDS011;43882;51.550;11.858;2023-04-06T03:22:06;25.02;;;13.00;;
58083;SDS011;43882;51.550;11.858;2023-04-06T03:24:32;24.73;;;12.13;;
58083;SDS011;43882;51.550;11.858;2023-04-06T03:26:58;26.75;;;12.52;;
58083;SDS011;43882;51.550;11.858;2023-04-06T03:29:23;24.42;;;11.73;;
58083;SDS011;43882;51.550;11.858;2023-04-06T03:31:50;29.40;;;13.15;;
58083;SDS011;43882;51.550;11.858;2023-04-06T03:34:16;28.95;;;14.15;;
58083;SDS011;43882;51.550;11.858;2023-04-06T03:36:42;29.27;;;13.75;;
58083;SDS011;43882;51.550;11.858;2023-04-06T03:39:08;28.00;;;13.00;;
58083;SDS011;43882;51.550;11.858;2023-04-06T03:41:34;29.80;;;14.10;;
58083;SDS011;43882;51.550;11.858;2023-04-06T03:44:00;26.20;;;12.98;;
58083;SDS011;43882;51.550;11.858;2023-04-06T03:46:26;31.95;;;13.57;;
58083;SDS011;43882;51.550;11.858;2023-04-06T03:48:52;29.98;;;13.40;;
58083;SDS011;43882;51.550;11.858;2023-04-06T03:51:18;30.98;;;14.13;;
58083;SDS011;43882;51.550;11.858;2023-04-06T03:53:44;27.30;;;12.85;;
58083;SDS011;43882;51.550;11.858;2023-04-06T03:56:10;28.65;;;12.63;;
58083;SDS011;43882;51.550;11.858;2023-04-06T03:58:36;28.90;;;12.88;;
58083;SDS011;43882;51.550;11.858;2023-04-06T04:01:02;25.65;;;11.73;;
58083;SDS011;43882;51.550;11.858;2023-04-06T04:03:28;28.10;;;13.25;;
58083;SDS011;43882;51.550;11.858;2023-04-06T04:05:54;24.85;;;11.93;;
58083;SDS011;43882;51.550;11.858;2023-04-06T04:08:20;25.52;;;11.90;;
58083;SDS011;43882;51.550;11.858;2023-04-06T04:10:46;26.40;;;12.18;;
58083;SDS011;43882;51.550;11.858;2023-04-06T04:13:12;26.88;;;11.65;;
58083;SDS011;43882;51.550;11.858;2023-04-06T04:15:38;26.60;;;11.93;;
58083;SDS011;43882;51.550;11.858;2023-04-06T04:18:04;25.95;;;11.82;;
58083;SDS011;43882;51.550;11.858;2023-04-06T04:20:30;28.27;;;12.05;;
58083;SDS011;43882;51.550;11.858;2023-04-06T04:22:56;25.05;;;12.35;;
58083;SDS011;43882;51.550;11.858;2023-04-06T04:25:22;38.72;;;16.10;;
58083;SDS011;43882;51.550;11.858;2023-04-06T04:27:48;32.85;;;13.02;;
58083;SDS011;43882;51.550;11.858;2023-04-06T04:30:15;33.10;;;13.18;;
58083;SDS011;43882;51.550;11.858;2023-04-06T04:32:40;29.55;;;12.82;;
58083;SDS011;43882;51.550;11.858;2023-04-06T04:35:07;29.05;;;13.52;;
58083;SDS011;43882;51.550;11.858;2023-04-06T04:37:33;31.75;;;13.25;;
58083;SDS011;43882;51.550;11.858;2023-04-06T04:40:00;26.80;;;12.38;;
58083;SDS011;43882;51.550;11.858;2023-04-06T04:42:26;26.73;;;11.95;;
58083;SDS011;43882;51.550;11.858;2023-04-06T04:44:52;26.08;;;12.38;;
58083;SDS011;43882;51.550;11.858;2023-04-06T04:47:18;28.52;;;12.52;;
58083;SDS011;43882;51.550;11.858;2023-04-06T04:49:44;29.00;;;12.88;;
58083;SDS011;43882;51.550;11.858;2023-04-06T04:52:10;26.00;;;12.05;;
58083;SDS011;43882;51.550;11.858;2023-04-06T04:54:36;26.88;;;12.68;;
58083;SDS011;43882;51.550;11.858;2023-04-06T04:57:02;27.65;;;12.30;;
58083;SDS011;43882;51.550;11.858;2023-04-06T04:59:28;28.15;;;12.70;;
58083;SDS011;43882;51.550;11.858;2023-04-06T05:01:54;23.95;;;11.52;;
58083;SDS011;43882;51.550;11.858;2023-04-06T05:04:21;28.05;;;12.93;;
58083;SDS011;43882;51.550;11.858;2023-04-06T05:06:48;26.25;;;12.95;;
58083;SDS011;43882;51.550;11.858;2023-04-06T05:09:14;28.05;;;12.40;;
58083;SDS011;43882;51.550;11.858;2023-04-06T05:11:40;26.40;;;12.45;;
58083;SDS011;43882;51.550;11.858;2023-04-06T05:14:06;29.55;;;14.02;;
58083;SDS011;43882;51.550;11.858;2023-04-06T05:16:33;27.55;;;13.05;;
58083;SDS011;43882;51.550;11.858;2023-04-06T05:18:59;28.67;;;13.55;;
58083;SDS011;43882;51.550;11.858;2023-04-06T05:21:25;30.05;;;14.07;;
58083;SDS011;43882;51.550;11.858;2023-04-06T05:23:53;30.30;;;13.80;;
58083;SDS011;43882;51.550;11.858;2023-04-06T05:26:18;27.17;;;13.65;;
58083;SDS011;43882;51.550;11.858;2023-04-06T05:28:44;32.45;;;14.18;;
58083;SDS011;43882;51.550;11.858;2023-04-06T05:31:10;28.75;;;12.52;;
58083;SDS011;43882;51.550;11.858;2023-04-06T05:33:36;29.33;;;13.30;;
58083;SDS011;43882;51.550;11.858;2023-04-06T05:36:02;29.10;;;11.70;;
58083;SDS011;43882;51.550;11.858;2023-04-06T05:38:30;26.73;;;12.45;;
58083;SDS011;43882;51.550;11.858;2023-04-06T05:40:58;29.08;;;11.95;;
58083;SDS011;43882;51.550;11.858;2023-04-06T05:43:24;30.55;;;12.63;;
58083;SDS011;43882;51.550;11.858;2023-04-06T05:45:50;26.98;;;12.63;;
58083;SDS011;43882;51.550;11.858;2023-04-06T05:48:16;32.65;;;14.70;;
58083;SDS011;43882;51.550;11.858;2023-04-06T05:50:42;37.30;;;16.33;;
58083;SDS011;43882;51.550;11.858;2023-04-06T05:53:08;34.50;;;15.50;;
58083;SDS011;43882;51.550;11.858;2023-04-06T05:55:34;28.25;;;13.48;;
58083;SDS011;43882;51.550;11.858;2023-04-06T05:58:00;25.85;;;12.18;;
58083;SDS011;43882;51.550;11.858;2023-04-06T06:00:26;29.63;;;14.55;;
58083;SDS011;43882;51.550;11.858;2023-04-06T06:02:52;28.73;;;13.25;;
58083;SDS011;43882;51.550;11.858;2023-04-06T06:05:18;35.50;;;15.75;;
58083;SDS011;43882;51.550;11.858;2023-04-06T06:07:44;44.72;;;17.90;;
58083;SDS011;43882;51.550;11.858;2023-04-06T06:10:10;48.92;;;19.40;;
58083;SDS011;43882;51.550;11.858;2023-04-06T06:12:36;26.25;;;12.82;;
58083;SDS011;43882;51.550;11.858;2023-04-06T06:15:02;27.98;;;12.15;;
58083;SDS011;43882;51.550;11.858;2023-04-06T06:17:28;27.10;;;12.50;;
58083;SDS011;43882;51.550;11.858;2023-04-06T06:19:54;30.45;;;12.80;;
58083;SDS011;43882;51.550;11.858;2023-04-06T06:22:20;27.70;;;13.27;;
58083;SDS011;43882;51.550;11.858;2023-04-06T06:24:46;28.77;;;13.73;;
58083;SDS011;43882;51.550;11.858;2023-04-06T06:27:12;28.00;;;14.02;;
58083;SDS011;43882;51.550;11.858;2023-04-06T06:29:38;27.95;;;13.02;;
58083;SDS011;43882;51.550;11.858;2023-04-06T06:32:04;27.40;;;14.35;;
58083;SDS011;43882;51.550;11.858;2023-04-06T06:34:30;29.25;;;14.00;;
58083;SDS011;43882;51.550;11.858;2023-04-06T06:36:56;27.27;;;14.20;;
58083;SDS011;43882;51.550;11.858;2023-04-06T06:39:22;31.02;;;13.80;;
58083;SDS011;43882;51.550;11.858;2023-04-06T06:41:48;28.38;;;13.75;;
58083;SDS011;43882;51.550;11.858;2023-04-06T06:44:14;31.95;;;15.15;;
58083;SDS011;43882;51.550;11.858;2023-04-06T06:46:41;28.73;;;14.93;;
58083;SDS011;43882;51.550;11.858;2023-04-06T06:49:07;29.88;;;15.20;;
58083;SDS011;43882;51.550;11.858;2023-04-06T06:51:33;34.78;;;15.32;;
58083;SDS011;43882;51.550;11.858;2023-04-06T06:53:59;31.02;;;15.68;;
58083;SDS011;43882;51.550;11.858;2023-04-06T06:56:25;30.50;;;15.02;;
58083;SDS011;43882;51.550;11.858;2023-04-06T06:58:52;31.25;;;15.45;;
58083;SDS011;43882;51.550;11.858;2023-04-06T07:01:18;30.23;;;15.52;;
58083;SDS011;43882;51.550;11.858;2023-04-06T07:03:45;30.88;;;14.57;;
58083;SDS011;43882;51.550;11.858;2023-04-06T07:06:11;35.50;;;17.30;;
58083;SDS011;43882;51.550;11.858;2023-04-06T07:08:37;30.73;;;15.50;;
58083;SDS011;43882;51.550;11.858;2023-04-06T07:11:03;30.23;;;14.85;;
58083;SDS011;43882;51.550;11.858;2023-04-06T07:13:29;26.83;;;14.65;;
58083;SDS011;43882;51.550;11.858;2023-04-06T07:15:55;27.95;;;13.80;;
58083;SDS011;43882;51.550;11.858;2023-04-06T07:18:21;26.63;;;13.18;;
58083;SDS011;43882;51.550;11.858;2023-04-06T07:20:47;24.45;;;12.82;;
58083;SDS011;43882;51.550;11.858;2023-04-06T07:23:13;25.23;;;13.02;;
58083;SDS011;43882;51.550;11.858;2023-04-06T07:25:40;23.95;;;12.90;;
58083;SDS011;43882;51.550;11.858;2023-04-06T07:28:06;25.33;;;13.15;;
58083;SDS011;43882;51.550;11.858;2023-04-06T07:30:32;25.63;;;14.15;;
58083;SDS011;43882;51.550;11.858;2023-04-06T07:32:58;25.63;;;13.00;;
58083;SDS011;43882;51.550;11.858;2023-04-06T07:35:24;27.25;;;13.02;;
58083;SDS011;43882;51.550;11.858;2023-04-06T07:37:51;27.60;;;13.25;;
58083;SDS011;43882;51.550;11.858;2023-04-06T07:40:17;24.83;;;13.07;;
58083;SDS011;43882;51.550;11.858;2023-04-06T07:42:44;25.65;;;13.02;;
58083;SDS011;43882;51.550;11.858;2023-04-06T07:45:10;26.63;;;13.55;;
58083;SDS011;43882;51.550;11.858;2023-04-06T07:47:36;24.60;;;12.93;;
58083;SDS011;43882;51.550;11.858;2023-04-06T07:50:02;24.98;;;12.40;;
58083;SDS011;43882;51.550;11.858;2023-04-06T07:52:28;23.65;;;12.82;;
58083;SDS011;43882;51.550;11.858;2023-04-06T07:54:55;23.95;;;12.30;;
58083;SDS011;43882;51.550;11.858;2023-04-06T07:57:21;22.85;;;12.18;;
58083;SDS011;43882;51.550;11.858;2023-04-06T07:59:47;23.33;;;12.43;;
58083;SDS011;43882;51.550;11.858;2023-04-06T08:02:12;24.40;;;13.15;;
58083;SDS011;43882;51.550;11.858;2023-04-06T08:04:38;26.42;;;13.35;;
58083;SDS011;43882;51.550;11.858;2023-04-06T08:07:04;25.15;;;12.98;;
58083;SDS011;43882;51.550;11.858;2023-04-06T08:09:31;23.55;;;13.18;;
58083;SDS011;43882;51.550;11.858;2023-04-06T08:11:57;23.08;;;11.68;;
58083;SDS011;43882;51.550;11.858;2023-04-06T08:14:23;21.30;;;10.48;;
58083;SDS011;43882;51.550;11.858;2023-04-06T08:16:49;23.15;;;10.65;;
58083;SDS011;43882;51.550;11.858;2023-04-06T08:19:15;21.90;;;10.23;;
58083;SDS011;43882;51.550;11.858;2023-04-06T08:21:43;21.83;;;9.88;;
58083;SDS011;43882;51.550;11.858;2023-04-06T08:24:10;19.77;;;9.70;;
58083;SDS011;43882;51.550;11.858;2023-04-06T08:26:36;19.90;;;9.10;;
58083;SDS011;43882;51.550;11.858;2023-04-06T08:29:02;19.02;;;9.40;;
58083;SDS011;43882;51.550;11.858;2023-04-06T08:31:29;19.88;;;8.68;;
58083;SDS011;43882;51.550;11.858;2023-04-06T08:33:55;18.83;;;8.80;;
58083;SDS011;43882;51.550;11.858;2023-04-06T08:36:21;19.75;;;9.00;;
58083;SDS011;43882;51.550;11.858;2023-04-06T08:38:48;19.58;;;9.77;;
58083;SDS011;43882;51.550;11.858;2023-04-06T08:41:14;20.23;;;9.05;;
58083;SDS011;43882;51.550;11.858;2023-04-06T08:46:07;19.30;;;8.68;;
58083;SDS011;43882;51.550;11.858;2023-04-06T08:48:35;20.67;;;8.57;;
58083;SDS011;43882;51.550;11.858;2023-04-06T08:51:01;19.45;;;8.50;;
58083;SDS011;43882;51.550;11.858;2023-04-06T08:53:27;19.70;;;8.88;;
58083;SDS011;43882;51.550;11.858;2023-04-06T08:55:54;18.35;;;8.90;;
58083;SDS011;43882;51.550;11.858;2023-04-06T08:58:21;18.88;;;8.52;;
58083;SDS011;43882;51.550;11.858;2023-04-06T09:00:48;20.05;;;9.23;;
58083;SDS011;43882;51.550;11.858;2023-04-06T09:03:14;21.15;;;8.90;;
58083;SDS011;43882;51.550;11.858;2023-04-06T09:05:41;18.25;;;7.88;;
58083;SDS011;43882;51.550;11.858;2023-04-06T09:08:07;18.52;;;8.40;;
58083;SDS011;43882;51.550;11.858;2023-04-06T09:10:34;21.27;;;8.90;;
58083;SDS011;43882;51.550;11.858;2023-04-06T09:13:04;20.23;;;8.13;;
58083;SDS011;43882;51.550;11.858;2023-04-06T09:15:30;19.15;;;8.20;;
58083;SDS011;43882;51.550;11.858;2023-04-06T09:17:56;20.35;;;8.80;;
58083;SDS011;43882;51.550;11.858;2023-04-06T09:20:22;18.67;;;8.20;;
58083;SDS011;43882;51.550;11.858;2023-04-06T09:22:51;20.60;;;8.13;;
58083;SDS011;43882;51.550;11.858;2023-04-06T09:25:21;19.95;;;8.38;;
58083;SDS011;43882;51.550;11.858;2023-04-06T09:27:59;19.77;;;8.38;;
58083;SDS011;43882;51.550;11.858;2023-04-06T09:32:52;18.88;;;7.53;;
58083;SDS011;43882;51.550;11.858;2023-04-06T09:35:19;18.00;;;7.53;;
58083;SDS011;43882;51.550;11.858;2023-04-06T09:37:45;19.08;;;7.97;;
58083;SDS011;43882;51.550;11.858;2023-04-06T09:40:12;19.15;;;8.40;;
58083;SDS011;43882;51.550;11.858;2023-04-06T09:42:42;18.65;;;8.50;;
58083;SDS011;43882;51.550;11.858;2023-04-06T09:45:08;20.80;;;8.45;;
58083;SDS011;43882;51.550;11.858;2023-04-06T09:47:36;19.90;;;7.57;;
58083;SDS011;43882;51.550;11.858;2023-04-06T09:50:02;18.55;;;8.00;;
58083;SDS011;43882;51.550;11.858;2023-04-06T09:52:32;17.55;;;7.45;;
58083;SDS011;43882;51.550;11.858;2023-04-06T09:55:02;18.65;;;7.20;;
58083;SDS011;43882;51.550;11.858;2023-04-06T09:57:30;18.73;;;7.15;;
58083;SDS011;43882;51.550;11.858;2023-04-06T10:00:02;20.45;;;7.70;;
58083;SDS011;43882;51.550;11.858;2023-04-06T10:07:56;18.70;;;7.38;;
58083;SDS011;43882;51.550;11.858;2023-04-06T10:10:23;19.23;;;7.22;;
58083;SDS011;43882;51.550;11.858;2023-04-06T10:12:49;20.52;;;8.02;;
58083;SDS011;43882;51.550;11.858;2023-04-06T10:15:15;19.13;;;7.38;;
58083;SDS011;43882;51.550;11.858;2023-04-06T10:17:41;19.10;;;7.88;;
58083;SDS011;43882;51.550;11.858;2023-04-06T10:20:50;20.77;;;7.78;;
58083;SDS011;43882;51.550;11.858;2023-04-06T10:25:29;18.25;;;7.03;;
58083;SDS011;43882;51.550;11.858;2023-04-06T10:27:59;19.45;;;6.72;;
58083;SDS011;43882;51.550;11.858;2023-04-06T10:30:25;19.08;;;7.03;;
58083;SDS011;43882;51.550;11.858;2023-04-06T10:32:51;18.27;;;7.68;;
58083;SDS011;43882;51.550;11.858;2023-04-06T10:35:17;20.45;;;7.28;;
58083;SDS011;43882;51.550;11.858;2023-04-06T10:37:47;17.23;;;7.13;;
58083;SDS011;43882;51.550;11.858;2023-04-06T10:40:20;18.63;;;7.95;;
58083;SDS011;43882;51.550;11.858;2023-04-06T10:42:47;22.73;;;9.50;;
58083;SDS011;43882;51.550;11.858;2023-04-06T10:45:19;21.52;;;8.02;;
58083;SDS011;43882;51.550;11.858;2023-04-06T10:47:46;19.30;;;8.20;;
58083;SDS011;43882;51.550;11.858;2023-04-06T10:50:15;19.80;;;8.35;;
58083;SDS011;43882;51.550;11.858;2023-04-06T10:52:43;18.38;;;7.50;;
58083;SDS011;43882;51.550;11.858;2023-04-06T10:55:09;19.00;;;7.85;;
58083;SDS011;43882;51.550;11.858;2023-04-06T10:57:35;20.05;;;8.20;;
58083;SDS011;43882;51.550;11.858;2023-04-06T11:00:03;18.38;;;7.70;;
58083;SDS011;43882;51.550;11.858;2023-04-06T11:02:29;18.55;;;7.47;;
58083;SDS011;43882;51.550;11.858;2023-04-06T11:04:56;19.52;;;7.57;;
58083;SDS011;43882;51.550;11.858;2023-04-06T11:07:23;19.88;;;7.72;;
58083;SDS011;43882;51.550;11.858;2023-04-06T11:09:50;19.10;;;7.60;;
58083;SDS011;43882;51.550;11.858;2023-04-06T11:12:26;21.83;;;7.47;;
58083;SDS011;43882;51.550;11.858;2023-04-06T11:15:01;19.33;;;7.65;;
58083;SDS011;43882;51.550;11.858;2023-04-06T11:17:29;20.48;;;7.35;;
58083;SDS011;43882;51.550;11.858;2023-04-06T11:19:56;18.10;;;7.38;;
58083;SDS011;43882;51.550;11.858;2023-04-06T11:22:22;19.50;;;7.97;;
58083;SDS011;43882;51.550;11.858;2023-04-06T11:24:48;17.77;;;6.93;;
58083;SDS011;43882;51.550;11.858;2023-04-06T11:27:14;18.75;;;7.07;;
58083;SDS011;43882;51.550;11.858;2023-04-06T11:29:41;17.83;;;7.28;;
58083;SDS011;43882;51.550;11.858;2023-04-06T11:32:07;17.45;;;7.07;;
58083;SDS011;43882;51.550;11.858;2023-04-06T11:34:34;17.92;;;7.03;;
58083;SDS011;43882;51.550;11.858;2023-04-06T11:37:02;19.35;;;7.85;;
58083;SDS011;43882;51.550;11.858;2023-04-06T11:39:31;28.42;;;11.30;;
58083;SDS011;43882;51.550;11.858;2023-04-06T11:41:58;18.60;;;7.10;;
58083;SDS011;43882;51.550;11.858;2023-04-06T11:44:34;20.00;;;7.00;;
58083;SDS011;43882;51.550;11.858;2023-04-06T11:47:01;17.75;;;7.20;;
58083;SDS011;43882;51.550;11.858;2023-04-06T11:49:28;19.05;;;8.15;;
58083;SDS011;43882;51.550;11.858;2023-04-06T11:51:54;18.08;;;7.10;;
58083;SDS011;43882;51.550;11.858;2023-04-06T11:54:33;21.40;;;8.88;;
58083;SDS011;43882;51.550;11.858;2023-04-06T11:56:59;24.67;;;8.90;;
58083;SDS011;43882;51.550;11.858;2023-04-06T11:59:25;20.05;;;7.35;;
58083;SDS011;43882;51.550;11.858;2023-04-06T12:01:52;17.80;;;7.22;;
58083;SDS011;43882;51.550;11.858;2023-04-06T12:04:18;20.63;;;7.55;;
58083;SDS011;43882;51.550;11.858;2023-04-06T12:06:44;18.00;;;7.03;;
58083;SDS011;43882;51.550;11.858;2023-04-06T12:09:10;16.85;;;7.10;;
58083;SDS011;43882;51.550;11.858;2023-04-06T12:11:36;18.25;;;7.70;;
58083;SDS011;43882;51.550;11.858;2023-04-06T12:14:02;17.45;;;6.93;;
58083;SDS011;43882;51.550;11.858;2023-04-06T12:16:30;17.73;;;6.93;;
58083;SDS011;43882;51.550;11.858;2023-04-06T12:18:56;20.17;;;7.75;;
58083;SDS011;43882;51.550;11.858;2023-04-06T12:21:22;19.45;;;8.50;;
58083;SDS011;43882;51.550;11.858;2023-04-06T12:23:48;19.63;;;9.20;;
58083;SDS011;43882;51.550;11.858;2023-04-06T12:26:14;18.38;;;8.10;;
58083;SDS011;43882;51.550;11.858;2023-04-06T12:28:40;18.15;;;7.05;;
58083;SDS011;43882;51.550;11.858;2023-04-06T12:31:06;18.02;;;7.03;;
58083;SDS011;43882;51.550;11.858;2023-04-06T12:33:32;18.70;;;7.35;;
58083;SDS011;43882;51.550;11.858;2023-04-06T12:35:58;17.50;;;6.70;;
58083;SDS011;43882;51.550;11.858;2023-04-06T12:38:23;17.15;;;6.65;;
58083;SDS011;43882;51.550;11.858;2023-04-06T12:40:50;17.05;;;6.50;;
58083;SDS011;43882;51.550;11.858;2023-04-06T12:43:16;18.73;;;6.85;;
58083;SDS011;43882;51.550;11.858;2023-04-06T12:45:42;17.42;;;6.50;;
58083;SDS011;43882;51.550;11.858;2023-04-06T12:48:08;16.77;;;6.65;;
58083;SDS011;43882;51.550;11.858;2023-04-06T12:50:34;17.50;;;7.03;;
58083;SDS011;43882;51.550;11.858;2023-04-06T12:53:00;18.77;;;7.75;;
58083;SDS011;43882;51.550;11.858;2023-04-06T12:55:27;24.13;;;9.02;;
58083;SDS011;43882;51.550;11.858;2023-04-06T12:57:54;26.55;;;11.18;;
58083;SDS011;43882;51.550;11.858;2023-04-06T13:00:21;19.02;;;8.18;;
58083;SDS011;43882;51.550;11.858;2023-04-06T13:02:47;15.95;;;6.47;;
58083;SDS011;43882;51.550;11.858;2023-04-06T13:05:13;17.70;;;7.63;;
58083;SDS011;43882;51.550;11.858;2023-04-06T13:07:43;17.98;;;7.13;;
58083;SDS011;43882;51.550;11.858;2023-04-06T13:10:11;17.63;;;7.15;;
58083;SDS011;43882;51.550;11.858;2023-04-06T13:12:37;16.58;;;6.38;;
58083;SDS011;43882;51.550;11.858;2023-04-06T13:15:03;21.58;;;7.55;;
58083;SDS011;43882;51.550;11.858;2023-04-06T13:17:29;18.27;;;6.93;;
58083;SDS011;43882;51.550;11.858;2023-04-06T13:19:55;18.63;;;7.10;;
58083;SDS011;43882;51.550;11.858;2023-04-06T13:22:21;18.75;;;6.70;;
58083;SDS011;43882;51.550;11.858;2023-04-06T13:24:47;17.15;;;6.68;;
58083;SDS011;43882;51.550;11.858;2023-04-06T13:27:13;18.08;;;6.88;;
58083;SDS011;43882;51.550;11.858;2023-04-06T13:29:39;17.00;;;6.70;;
58083;SDS011;43882;51.550;11.858;2023-04-06T13:32:05;17.08;;;6.70;;
58083;SDS011;43882;51.550;11.858;2023-04-06T13:34:31;18.90;;;7.55;;
58083;SDS011;43882;51.550;11.858;2023-04-06T13:36:57;17.48;;;7.03;;
58083;SDS011;43882;51.550;11.858;2023-04-06T13:39:23;17.88;;;7.05;;
58083;SDS011;43882;51.550;11.858;2023-04-06T13:41:49;21.83;;;7.40;;
58083;SDS011;43882;51.550;11.858;2023-04-06T13:44:15;32.25;;;9.52;;
58083;SDS011;43882;51.550;11.858;2023-04-06T13:46:41;20.02;;;7.10;;
58083;SDS011;43882;51.550;11.858;2023-04-06T13:49:08;18.98;;;7.40;;
58083;SDS011;43882;51.550;11.858;2023-04-06T13:51:34;17.13;;;7.07;;
58083;SDS011;43882;51.550;11.858;2023-04-06T13:54:00;20.58;;;8.43;;
58083;SDS011;43882;51.550;11.858;2023-04-06T13:56:26;16.48;;;6.68;;
58083;SDS011;43882;51.550;11.858;2023-04-06T13:58:55;18.13;;;6.65;;
58083;SDS011;43882;51.550;11.858;2023-04-06T14:01:22;16.95;;;6.88;;
58083;SDS011;43882;51.550;11.858;2023-04-06T14:03:48;17.75;;;7.00;;
58083;SDS011;43882;51.550;11.858;2023-04-06T14:06:14;22.45;;;6.95;;
58083;SDS011;43882;51.550;11.858;2023-04-06T14:08:40;18.58;;;7.05;;
58083;SDS011;43882;51.550;11.858;2023-04-06T14:11:07;17.80;;;6.80;;
58083;SDS011;43882;51.550;11.858;2023-04-06T14:13:36;16.63;;;7.00;;
58083;SDS011;43882;51.550;11.858;2023-04-06T14:16:02;18.70;;;6.80;;
58083;SDS011;43882;51.550;11.858;2023-04-06T14:18:28;22.55;;;7.80;;
58083;SDS011;43882;51.550;11.858;2023-04-06T14:20:56;16.17;;;6.50;;